Archival Weather

Porter County Rgnl

Valparaiso, Indiana (KVPZ)

Report from: Monday, December 11, 2023 1:56 AM CST
Current time: Wednesday, April 24, 2024 3:07 PM CDT

Current weather – Weather history – Daily summaries
Weather forecast

Temperature-1.1°C (30.0°F)
Wind chill-5.3°C (22.4°F)
Dew point-6.1°C (21.0°F)
Winds 7 kts (3.6 m/s, 8.1 mph) West (270°)
Visibility10 mi. (16.1 km)
Clouds Ceiling: Overcast 2,500 ft. (762 m)
Altimeter30.09 in.Hg (1019 mB)
Relative humidity69 %
Density altitude-2,130 ft. (-649 m)
Sea-level pressure102.0 kPa (1020 mB, 30.11 in.Hg)
Remarks Fully automated report
Automated weather observing station with precipitation discriminator
Flight conditions Marginal Visual Meteorological Conditions
Raw dataKVPZ 110756Z AUTO 27007KT 10SM OVC025 M01/M06 A3009 RMK AO2 SLP197 T10111061
An error has occurred. This application may no longer respond until reloaded. Reload 🗙